createdAt,value
2018-11-13T00:01:43.315Z,28.98
2018-11-13T00:04:11.804Z,25.95
2018-11-13T00:06:40.036Z,27.80
2018-11-13T00:09:08.903Z,26.40
2018-11-13T00:11:37.518Z,27.60
2018-11-13T00:14:05.771Z,27.50
2018-11-13T00:16:34.051Z,31.63
2018-11-13T00:19:02.346Z,34.03
2018-11-13T00:21:30.937Z,36.15
2018-11-13T00:23:59.345Z,37.85
2018-11-13T00:26:27.855Z,39.53
2018-11-13T00:28:56.152Z,38.33
2018-11-13T00:31:24.416Z,38.83
2018-11-13T00:33:52.703Z,36.53
2018-11-13T00:36:20.969Z,39.67
2018-11-13T00:38:49.278Z,35.95
2018-11-13T00:41:17.798Z,39.55
2018-11-13T00:43:46.132Z,39.60
2018-11-13T00:46:14.431Z,36.67
2018-11-13T00:48:42.690Z,39.13
2018-11-13T00:51:10.992Z,39.77
2018-11-13T00:53:39.259Z,40.45
2018-11-13T00:56:07.528Z,35.58
2018-11-13T00:58:35.800Z,41.23
2018-11-13T01:01:04.107Z,37.33
2018-11-13T01:03:32.394Z,36.23
2018-11-13T01:06:00.688Z,41.98
2018-11-13T01:08:28.983Z,43.33
2018-11-13T01:10:57.282Z,44.83
2018-11-13T01:13:25.545Z,42.05
2018-11-13T01:15:53.917Z,33.98
2018-11-13T01:18:22.227Z,40.17
2018-11-13T01:20:50.485Z,39.83
2018-11-13T01:23:18.766Z,38.83
2018-11-13T01:25:47.118Z,39.63
2018-11-13T01:28:15.392Z,36.88
2018-11-13T01:30:43.663Z,38.63
2018-11-13T01:33:11.934Z,40.12
2018-11-13T01:35:40.611Z,41.58
2018-11-13T01:38:08.877Z,41.48
2018-11-13T01:40:37.148Z,36.23
2018-11-13T01:43:05.484Z,42.93
2018-11-13T01:45:33.748Z,38.53
2018-11-13T01:48:02.111Z,41.67
2018-11-13T01:50:30.336Z,35.50
2018-11-13T01:52:58.666Z,38.08
2018-11-13T01:55:26.980Z,38.15
2018-11-13T01:57:55.234Z,36.68
2018-11-13T02:00:24.275Z,36.05
2018-11-13T02:02:53.722Z,41.65
2018-11-13T02:05:23.199Z,40.05
2018-11-13T02:07:52.243Z,40.43
2018-11-13T02:10:20.844Z,42.23
2018-11-13T02:12:49.672Z,36.93
2018-11-13T02:15:18.217Z,35.83
2018-11-13T02:17:46.496Z,39.65
2018-11-13T02:20:16.529Z,38.70
2018-11-13T02:22:44.826Z,38.67
2018-11-13T02:25:14.511Z,36.15
2018-11-13T02:27:43.075Z,39.38
2018-11-13T02:30:14.251Z,39.08
2018-11-13T02:32:43.278Z,37.75
2018-11-13T02:35:12.108Z,40.92
2018-11-13T02:37:40.407Z,32.67
2018-11-13T02:40:08.659Z,36.53
2018-11-13T02:42:37.654Z,37.60
2018-11-13T02:45:10.087Z,37.30
2018-11-13T02:47:38.603Z,38.05
2018-11-13T02:50:08.899Z,33.65
2018-11-13T02:52:37.511Z,38.70
2018-11-13T02:55:06.054Z,38.10
2018-11-13T02:57:34.492Z,40.05
2018-11-13T03:00:02.815Z,35.92
2018-11-13T03:02:31.263Z,34.92
2018-11-13T03:04:59.535Z,33.75
2018-11-13T03:07:28.003Z,36.30
2018-11-13T03:09:56.276Z,35.83
2018-11-13T03:12:24.546Z,35.43
2018-11-13T03:14:52.851Z,37.55
2018-11-13T03:17:21.480Z,38.08
2018-11-13T03:19:49.774Z,36.00
2018-11-13T03:22:18.051Z,38.45
2018-11-13T03:24:46.300Z,35.28
2018-11-13T03:27:14.581Z,37.53
2018-11-13T03:29:42.872Z,32.17
2018-11-13T03:32:11.191Z,33.40
2018-11-13T03:34:39.460Z,33.73
2018-11-13T03:37:07.920Z,34.23
2018-11-13T03:39:36.211Z,32.40
2018-11-13T03:42:04.521Z,31.62
2018-11-13T03:44:32.812Z,34.85
2018-11-13T03:47:01.064Z,41.33
2018-11-13T03:49:29.370Z,35.50
2018-11-13T03:51:57.691Z,40.80
2018-11-13T03:54:26.054Z,34.88
2018-11-13T03:56:54.413Z,35.75
2018-11-13T03:59:23.087Z,35.67
2018-11-13T04:01:51.386Z,37.33
2018-11-13T04:04:19.667Z,38.53
2018-11-13T04:06:47.939Z,40.05
2018-11-13T04:09:16.340Z,38.38
2018-11-13T04:11:44.626Z,37.10
2018-11-13T04:14:12.898Z,39.70
2018-11-13T04:16:41.170Z,44.77
2018-11-13T04:19:09.554Z,39.57
2018-11-13T04:21:38.381Z,38.10
2018-11-13T04:24:06.911Z,39.30
2018-11-13T04:26:35.242Z,42.10
2018-11-13T04:29:03.511Z,43.00
2018-11-13T04:31:31.772Z,42.73
2018-11-13T04:34:00.075Z,38.73
2018-11-13T04:36:28.356Z,39.73
2018-11-13T04:38:56.629Z,38.98
2018-11-13T04:41:24.922Z,39.27
2018-11-13T04:43:53.290Z,40.40
2018-11-13T04:46:21.607Z,36.88
2018-11-13T04:48:50.036Z,33.10
2018-11-13T04:51:18.322Z,34.70
2018-11-13T04:53:46.592Z,34.20
2018-11-13T04:56:14.863Z,31.00
2018-11-13T04:58:43.164Z,31.87
2018-11-13T05:01:11.440Z,30.60
2018-11-13T05:03:39.762Z,33.25
2018-11-13T05:06:08.063Z,31.68
2018-11-13T05:08:36.379Z,29.18
2018-11-13T05:11:04.672Z,25.97
2018-11-13T05:13:32.939Z,25.05
2018-11-13T05:16:01.708Z,23.60
2018-11-13T05:18:29.991Z,22.77
2018-11-13T05:20:58.255Z,20.77
2018-11-13T05:23:26.664Z,20.82
2018-11-13T05:25:55.024Z,20.00
2018-11-13T05:28:23.303Z,19.62
2018-11-13T05:30:51.639Z,22.70
2018-11-13T05:33:19.918Z,19.00
2018-11-13T05:35:48.175Z,16.60
2018-11-13T05:38:16.636Z,17.40
2018-11-13T05:40:44.898Z,14.15
2018-11-13T05:43:13.225Z,16.73
2018-11-13T05:45:41.493Z,13.15
2018-11-13T05:48:09.724Z,14.95
2018-11-13T05:50:38.049Z,11.65
2018-11-13T05:53:06.668Z,12.78
2018-11-13T05:55:34.952Z,10.37
2018-11-13T05:58:03.236Z,12.15
2018-11-13T06:00:32.560Z,11.70
2018-11-13T06:03:01.387Z,11.22
2018-11-13T06:05:29.926Z,12.13
2018-11-13T06:07:58.451Z,12.43
2018-11-13T06:10:26.767Z,10.65
2018-11-13T06:12:55.170Z,13.20
2018-11-13T06:15:23.450Z,11.73
2018-11-13T06:17:51.726Z,11.70
2018-11-13T06:20:19.991Z,8.93
2018-11-13T06:22:48.376Z,11.57
2018-11-13T06:25:17.578Z,11.85
2018-11-13T06:27:47.002Z,9.93
2018-11-13T06:30:20.615Z,14.20
2018-11-13T06:32:49.348Z,9.43
2018-11-13T06:35:17.653Z,9.70
2018-11-13T06:37:45.917Z,9.03
2018-11-13T06:40:14.241Z,11.20
2018-11-13T06:42:42.664Z,9.53
2018-11-13T06:45:13.444Z,17.95
2018-11-13T06:47:42.304Z,10.88
2018-11-13T06:50:11.183Z,12.98
2018-11-13T06:52:39.475Z,10.85
2018-11-13T06:55:13.522Z,8.50
2018-11-13T06:57:41.832Z,12.20
2018-11-13T07:00:10.650Z,17.45
2018-11-13T07:02:39.558Z,8.30
2018-11-13T07:05:12.276Z,11.43
2018-11-13T07:07:40.810Z,9.70
2018-11-13T07:10:10.635Z,10.60
2018-11-13T07:12:39.765Z,11.22
2018-11-13T07:15:09.122Z,9.28
2018-11-13T07:17:37.407Z,9.00
2018-11-13T07:20:06.654Z,8.83
2018-11-13T07:22:34.915Z,8.65
2018-11-13T07:25:03.239Z,7.75
2018-11-13T07:27:31.550Z,10.60
2018-11-13T07:30:00.018Z,9.93
2018-11-13T07:32:28.327Z,6.12
2018-11-13T07:34:56.555Z,6.58
2018-11-13T07:37:24.823Z,8.60
2018-11-13T07:39:53.118Z,10.72
2018-11-13T07:42:21.510Z,10.30
2018-11-13T07:44:49.771Z,6.92
2018-11-13T07:47:18.182Z,7.20
2018-11-13T07:49:46.368Z,9.65
2018-11-13T07:52:14.646Z,8.07
2018-11-13T07:54:42.924Z,9.87
2018-11-13T07:57:11.161Z,9.00
2018-11-13T07:59:39.445Z,10.10
2018-11-13T08:02:07.736Z,6.25
2018-11-13T08:04:36.293Z,5.67
2018-11-13T08:07:04.946Z,9.00
2018-11-13T08:09:33.209Z,9.03
2018-11-13T08:12:01.452Z,5.73
2018-11-13T08:14:30.655Z,6.70
2018-11-13T08:16:59.075Z,4.17
2018-11-13T08:19:27.328Z,12.45
2018-11-13T08:21:55.673Z,6.17
2018-11-13T08:24:23.910Z,6.05
2018-11-13T08:26:52.184Z,8.50
2018-11-13T08:29:20.511Z,8.75
2018-11-13T08:31:48.773Z,6.83
2018-11-13T08:34:17.169Z,8.48
2018-11-13T08:36:45.453Z,12.63
2018-11-13T08:39:13.988Z,7.67
2018-11-13T08:41:42.267Z,6.30
2018-11-13T08:44:10.635Z,9.93
2018-11-13T08:46:39.004Z,6.90
2018-11-13T08:49:07.647Z,6.80
2018-11-13T08:51:35.923Z,6.80
2018-11-13T08:54:04.226Z,8.18
2018-11-13T08:56:32.487Z,6.62
2018-11-13T08:59:00.859Z,4.67
2018-11-13T09:01:29.066Z,10.80
2018-11-13T09:03:57.330Z,6.60
2018-11-13T09:06:25.620Z,6.67
2018-11-13T09:08:53.861Z,7.23
2018-11-13T09:11:22.198Z,8.10
2018-11-13T09:13:50.400Z,7.05
2018-11-13T09:16:18.635Z,7.95
2018-11-13T09:18:47.017Z,7.30
2018-11-13T09:21:15.240Z,6.75
2018-11-13T09:23:43.538Z,6.90
2018-11-13T09:26:11.843Z,8.60
2018-11-13T09:28:40.098Z,9.38
2018-11-13T09:31:08.462Z,5.17
2018-11-13T09:33:37.052Z,6.25
2018-11-13T09:36:05.757Z,5.35
2018-11-13T09:38:34.135Z,12.37
2018-11-13T09:41:02.432Z,7.17
2018-11-13T09:43:30.721Z,6.20
2018-11-13T09:45:59.053Z,6.72
2018-11-13T09:48:27.291Z,8.50
2018-11-13T09:50:55.595Z,10.90
2018-11-13T09:53:23.991Z,7.33
2018-11-13T09:55:52.212Z,7.33
2018-11-13T09:58:20.471Z,9.33
2018-11-13T10:00:48.892Z,12.20
2018-11-13T10:03:17.792Z,6.58
2018-11-13T10:05:46.533Z,6.22
2018-11-13T10:08:14.702Z,7.00
2018-11-13T10:10:43.039Z,6.50
2018-11-13T10:13:11.287Z,9.00
2018-11-13T10:15:39.579Z,7.87
2018-11-13T10:18:08.014Z,4.00
2018-11-13T10:20:36.135Z,11.47
2018-11-13T10:23:04.590Z,9.20
2018-11-13T10:25:32.834Z,9.53
2018-11-13T10:28:01.139Z,7.42
2018-11-13T10:30:29.457Z,12.45
2018-11-13T10:32:57.761Z,6.03
2018-11-13T10:35:26.650Z,12.40
2018-11-13T10:37:54.918Z,7.25
2018-11-13T10:40:23.803Z,9.78
2018-11-13T10:42:52.519Z,8.53
2018-11-13T10:45:23.560Z,6.75
2018-11-13T10:47:51.850Z,10.03
2018-11-13T10:50:21.761Z,7.60
2018-11-13T10:52:49.978Z,8.40
2018-11-13T10:55:18.248Z,11.78
2018-11-13T10:57:46.541Z,6.15
2018-11-13T11:00:21.170Z,6.50
2018-11-13T11:03:56.625Z,7.40
2018-11-13T11:06:24.983Z,9.53
2018-11-13T11:08:53.247Z,8.63
2018-11-13T11:11:21.575Z,11.05
2018-11-13T11:13:49.982Z,6.87
2018-11-13T11:16:18.111Z,6.15
2018-11-13T11:18:46.430Z,7.85
2018-11-13T11:21:14.672Z,7.40
2018-11-13T11:23:42.971Z,8.95
2018-11-13T11:26:11.530Z,5.92
2018-11-13T11:28:39.841Z,6.77
2018-11-13T11:31:08.507Z,9.03
2018-11-13T11:33:36.689Z,9.05
2018-11-13T11:36:05.116Z,6.15
2018-11-13T11:38:33.701Z,7.47
2018-11-13T11:41:01.939Z,10.63
2018-11-13T11:43:30.223Z,10.03
2018-11-13T11:45:58.519Z,5.28
2018-11-13T11:48:26.803Z,7.30
2018-11-13T11:50:55.107Z,7.00
2018-11-13T11:53:23.393Z,6.33
2018-11-13T11:55:51.665Z,8.73
2018-11-13T11:58:19.965Z,4.10
2018-11-13T12:00:48.378Z,5.37
2018-11-13T12:03:16.607Z,4.30
2018-11-13T12:05:44.948Z,4.53
2018-11-13T12:08:13.239Z,2.98
2018-11-13T12:10:41.735Z,7.15
2018-11-13T12:13:09.807Z,5.90
2018-11-13T12:15:38.093Z,4.50
2018-11-13T12:18:06.636Z,5.60
2018-11-13T12:20:34.934Z,7.08
2018-11-13T12:23:03.235Z,11.55
2018-11-13T12:25:31.532Z,5.12
2018-11-13T12:27:59.836Z,5.58
2018-11-13T12:30:28.137Z,6.90
2018-11-13T12:32:56.428Z,9.68
2018-11-13T12:35:25.052Z,6.65
2018-11-13T12:37:53.368Z,7.03
2018-11-13T12:40:22.908Z,5.33
2018-11-13T12:42:51.497Z,7.85
2018-11-13T12:45:20.303Z,6.90
2018-11-13T12:47:48.835Z,5.55
2018-11-13T12:50:18.267Z,9.70
2018-11-13T12:52:46.526Z,6.43
2018-11-13T12:55:20.931Z,5.55
2018-11-13T12:57:49.209Z,7.62
2018-11-13T13:00:22.906Z,4.50
2018-11-13T13:02:51.319Z,9.03
2018-11-13T13:05:19.797Z,9.77
2018-11-13T13:07:48.093Z,5.75
2018-11-13T13:10:17.592Z,4.45
2018-11-13T13:12:45.882Z,11.55
2018-11-13T13:15:15.674Z,6.87
2018-11-13T13:17:44.251Z,4.23
2018-11-13T13:20:17.940Z,7.83
2018-11-13T13:22:47.356Z,6.30
2018-11-13T13:25:16.671Z,4.30
2018-11-13T13:27:44.977Z,5.20
2018-11-13T13:30:16.271Z,6.27
2018-11-13T13:32:45.072Z,5.60
2018-11-13T13:35:58.659Z,9.60
2018-11-13T13:38:26.938Z,5.57
2018-11-13T13:40:56.592Z,6.80
2018-11-13T13:43:25.706Z,12.50
2018-11-13T13:45:54.011Z,4.87
2018-11-13T13:48:22.659Z,7.03
2018-11-13T13:50:50.975Z,7.53
2018-11-13T13:53:20.026Z,6.45
2018-11-13T13:55:48.824Z,5.00
2018-11-13T13:58:17.505Z,7.10
2018-11-13T14:00:45.885Z,6.62
2018-11-13T14:03:14.668Z,4.33
2018-11-13T14:05:43.369Z,4.07
2018-11-13T14:08:12.566Z,6.83
2018-11-13T14:10:40.904Z,5.25
2018-11-13T14:13:09.291Z,6.75
2018-11-13T14:15:37.585Z,8.75
2018-11-13T14:18:05.895Z,22.95
2018-11-13T14:20:34.200Z,10.75
2018-11-13T14:23:02.473Z,13.10
2018-11-13T14:25:30.916Z,5.53
2018-11-13T14:27:59.259Z,2.83
2018-11-13T14:30:30.364Z,9.30
2018-11-13T14:33:00.089Z,8.10
2018-11-13T14:35:28.439Z,8.85
2018-11-13T14:37:56.899Z,4.92
2018-11-13T14:40:29.457Z,8.90
2018-11-13T14:42:58.056Z,10.03
2018-11-13T14:45:26.922Z,9.70
2018-11-13T14:47:55.307Z,7.77
2018-11-13T14:50:25.054Z,8.30
2018-11-13T14:52:53.601Z,6.53
2018-11-13T14:55:24.231Z,7.00
2018-11-13T14:57:52.902Z,8.53
2018-11-13T15:00:23.767Z,5.12
2018-11-13T15:02:52.493Z,6.45
2018-11-13T15:05:21.651Z,6.08
2018-11-13T15:07:51.173Z,5.72
2018-11-13T15:10:39.787Z,5.50
2018-11-13T15:13:09.005Z,5.92
2018-11-13T15:15:37.286Z,6.05
2018-11-13T15:18:06.235Z,9.40
2018-11-13T15:20:34.527Z,7.67
2018-11-13T15:23:02.788Z,7.43
2018-11-13T15:25:31.072Z,6.10
2018-11-13T15:27:59.336Z,7.90
2018-11-13T15:30:29.386Z,6.60
2018-11-13T15:33:02.109Z,6.95
2018-11-13T15:35:30.392Z,6.05
2018-11-13T15:37:58.643Z,7.25
2018-11-13T15:40:28.119Z,10.10
2018-11-13T15:42:56.428Z,10.38
2018-11-13T15:45:24.720Z,5.17
2018-11-13T15:47:53.784Z,6.17
2018-11-13T15:50:26.243Z,6.12
2018-11-13T15:52:54.672Z,9.68
2018-11-13T15:55:22.949Z,7.80
2018-11-13T15:57:51.394Z,6.93
2018-11-13T16:00:25.649Z,9.50
2018-11-13T16:02:54.379Z,6.15
2018-11-13T16:05:41.669Z,5.40
2018-11-13T16:08:10.717Z,5.87
2018-11-13T16:10:38.991Z,7.55
2018-11-13T16:13:07.627Z,6.72
2018-11-13T16:15:35.914Z,6.87
2018-11-13T16:18:05.553Z,10.47
2018-11-13T16:20:33.843Z,8.98
2018-11-13T16:23:02.355Z,6.30
2018-11-13T16:25:30.674Z,7.20
2018-11-13T16:27:58.962Z,6.35
2018-11-13T16:30:28.811Z,7.70
2018-11-13T16:32:56.974Z,7.25
2018-11-13T16:35:26.267Z,6.70
2018-11-13T16:37:55.418Z,5.70
2018-11-13T16:40:24.980Z,5.45
2018-11-13T16:42:53.265Z,6.50
2018-11-13T16:45:22.635Z,5.78
2018-11-13T16:47:51.146Z,11.68
2018-11-13T16:50:21.322Z,6.80
2018-11-13T16:52:49.593Z,9.90
2018-11-13T16:55:23.279Z,8.67
2018-11-13T16:57:52.308Z,7.28
2018-11-13T17:00:21.150Z,8.38
2018-11-13T17:02:49.567Z,9.57
2018-11-13T17:05:18.870Z,10.93
2018-11-13T17:07:47.132Z,7.53
2018-11-13T17:10:16.858Z,7.20
2018-11-13T17:12:45.354Z,6.17
2018-11-13T17:15:16.016Z,9.05
2018-11-13T17:17:44.938Z,9.83
2018-11-13T17:20:13.873Z,9.08
2018-11-13T17:22:42.668Z,6.53
2018-11-13T17:25:11.948Z,8.30
2018-11-13T17:27:41.300Z,7.00
2018-11-13T17:30:12.345Z,7.17
2018-11-13T17:32:41.008Z,8.25
2018-11-13T17:35:10.284Z,9.28
2018-11-13T17:37:38.663Z,10.03
2018-11-13T17:40:09.920Z,8.70
2018-11-13T17:42:38.299Z,4.60
2018-11-13T17:45:17.547Z,9.45
2018-11-13T17:47:46.436Z,9.60
2018-11-13T17:50:19.184Z,7.35
2018-11-13T17:52:48.181Z,7.33
2018-11-13T17:55:17.184Z,8.18
2018-11-13T17:57:46.371Z,7.90
2018-11-13T18:00:47.701Z,8.20
2018-11-13T18:03:17.037Z,7.22
2018-11-13T18:05:46.045Z,11.40
2018-11-13T18:08:14.500Z,8.53
2018-11-13T18:10:43.986Z,8.98
2018-11-13T18:13:12.279Z,9.30
2018-11-13T18:15:40.627Z,15.18
2018-11-13T18:18:09.271Z,7.92
2018-11-13T18:20:38.627Z,8.58
2018-11-13T18:23:07.477Z,10.28
2018-11-13T18:25:35.890Z,12.35
2018-11-13T18:28:04.381Z,16.37
2018-11-13T18:30:35.072Z,8.53
2018-11-13T18:33:04.006Z,11.45
2018-11-13T18:35:33.622Z,10.37
2018-11-13T18:38:03.426Z,8.30
2018-11-13T18:40:31.641Z,14.57
2018-11-13T18:43:01.231Z,10.23
2018-11-13T18:45:31.268Z,9.75
2018-11-13T18:47:59.680Z,11.00
2018-11-13T18:50:30.052Z,11.08
2018-11-13T18:52:58.389Z,12.63
2018-11-13T18:55:26.769Z,13.45
2018-11-13T18:57:55.409Z,12.67
2018-11-13T19:00:26.203Z,10.80
2018-11-13T19:02:54.521Z,8.13
2018-11-13T19:05:23.293Z,11.53
2018-11-13T19:07:51.558Z,8.13
2018-11-13T19:10:27.499Z,11.55
2018-11-13T19:13:00.770Z,13.10
2018-11-13T19:15:30.079Z,20.70
2018-11-13T19:17:58.436Z,14.70
2018-11-13T19:20:27.406Z,16.70
2018-11-13T19:22:55.619Z,9.80
2018-11-13T19:25:26.437Z,14.87
2018-11-13T19:27:55.351Z,14.23
2018-11-13T19:30:23.864Z,12.07
2018-11-13T19:32:52.146Z,11.15
2018-11-13T19:35:20.832Z,13.55
2018-11-13T19:37:49.103Z,12.95
2018-11-13T19:40:22.015Z,14.73
2018-11-13T19:42:50.987Z,10.95
2018-11-13T19:45:19.751Z,15.60
2018-11-13T19:47:47.992Z,11.17
2018-11-13T19:50:17.960Z,11.57
2018-11-13T19:52:46.276Z,12.75
2018-11-13T19:55:15.580Z,11.97
2018-11-13T19:57:44.648Z,14.57
2018-11-13T20:00:20.816Z,13.78
2018-11-13T20:02:50.302Z,18.15
2018-11-13T20:05:18.612Z,12.40
2018-11-13T20:07:46.940Z,11.20
2018-11-13T20:10:23.288Z,15.98
2018-11-13T20:12:52.545Z,10.80
2018-11-13T20:15:21.880Z,12.00
2018-11-13T20:17:50.289Z,16.35
2018-11-13T20:20:20.777Z,9.60
2018-11-13T20:22:49.753Z,14.58
2018-11-13T20:25:19.442Z,11.40
2018-11-13T20:27:47.748Z,14.28
2018-11-13T20:30:18.479Z,14.18
2018-11-13T20:32:46.834Z,13.60
2018-11-13T20:35:15.163Z,17.80
2018-11-13T20:37:44.854Z,10.15
2018-11-13T20:40:18.612Z,11.03
2018-11-13T20:42:51.249Z,10.48
2018-11-13T20:45:19.752Z,9.73
2018-11-13T20:47:48.085Z,17.62
2018-11-13T20:50:18.388Z,12.93
2018-11-13T20:52:46.956Z,12.82
2018-11-13T20:55:15.318Z,13.93
2018-11-13T20:57:43.587Z,13.50
2018-11-13T21:00:13.984Z,8.90
2018-11-13T21:02:42.279Z,13.35
2018-11-13T21:05:10.549Z,14.05
2018-11-13T21:07:38.985Z,16.32
2018-11-13T21:10:10.414Z,14.00
2018-11-13T21:12:39.020Z,16.50
2018-11-13T21:15:09.672Z,16.60
2018-11-13T21:17:37.957Z,12.45
2018-11-13T21:20:07.496Z,13.55
2018-11-13T21:22:35.774Z,14.90
2018-11-13T21:25:04.420Z,10.32
2018-11-13T21:27:33.059Z,11.38
2018-11-13T21:30:01.450Z,13.45
2018-11-13T21:32:29.660Z,13.50
2018-11-13T21:34:57.962Z,10.15
2018-11-13T21:37:26.444Z,12.43
2018-11-13T21:39:54.827Z,22.00
2018-11-13T21:42:23.110Z,13.58
2018-11-13T21:44:51.667Z,13.55
2018-11-13T21:47:19.973Z,13.38
2018-11-13T21:49:49.459Z,10.68
2018-11-13T21:52:17.863Z,19.27
2018-11-13T21:54:46.147Z,17.15
2018-11-13T21:57:14.427Z,15.90
2018-11-13T21:59:42.791Z,17.67
2018-11-13T22:02:11.067Z,13.72
2018-11-13T22:04:39.487Z,11.90
2018-11-13T22:07:08.658Z,10.97
2018-11-13T22:09:36.915Z,11.37
2018-11-13T22:12:05.234Z,12.82
2018-11-13T22:14:33.578Z,15.20
2018-11-13T22:17:01.850Z,12.93
2018-11-13T22:19:30.191Z,12.00
2018-11-13T22:21:58.472Z,15.18
2018-11-13T22:24:26.753Z,12.90
2018-11-13T22:26:55.040Z,16.37
2018-11-13T22:29:23.334Z,10.57
2018-11-13T22:31:51.617Z,15.70
2018-11-13T22:34:19.973Z,16.20
2018-11-13T22:36:48.235Z,11.65
2018-11-13T22:39:16.507Z,15.65
2018-11-13T22:41:44.815Z,13.98
2018-11-13T22:44:13.143Z,12.60
2018-11-13T22:46:41.405Z,10.98
2018-11-13T22:49:09.681Z,15.93
2018-11-13T22:51:38.005Z,11.93
2018-11-13T22:54:06.319Z,15.45
2018-11-13T22:56:34.672Z,9.98
2018-11-13T22:59:02.990Z,12.68
2018-11-13T23:01:31.291Z,12.82
2018-11-13T23:03:59.591Z,11.70
2018-11-13T23:06:27.870Z,15.95
2018-11-13T23:08:56.151Z,18.37
2018-11-13T23:11:24.526Z,13.50
2018-11-13T23:13:52.797Z,16.10
2018-11-13T23:16:21.071Z,10.63
2018-11-13T23:18:49.353Z,13.03
2018-11-13T23:21:17.653Z,15.28
2018-11-13T23:23:45.940Z,19.00
2018-11-13T23:26:14.205Z,9.75
2018-11-13T23:28:42.478Z,14.18
2018-11-13T23:31:10.735Z,11.93
2018-11-13T23:33:38.994Z,13.67
2018-11-13T23:36:07.285Z,15.47
2018-11-13T23:38:35.544Z,19.13
2018-11-13T23:41:03.820Z,10.68
2018-11-13T23:43:32.105Z,10.28
2018-11-13T23:46:00.489Z,13.03
2018-11-13T23:48:28.867Z,11.25
2018-11-13T23:50:57.132Z,14.30
2018-11-13T23:53:25.400Z,9.33
2018-11-13T23:55:53.685Z,17.40
2018-11-13T23:58:21.949Z,14.60
